createdAt,value
2018-04-27T00:01:56.497Z,95.10
2018-04-27T00:04:23.951Z,95.10
2018-04-27T00:06:52.153Z,95.20
2018-04-27T00:09:19.618Z,95.20
2018-04-27T00:11:47.050Z,95.30
2018-04-27T00:14:14.494Z,95.30
2018-04-27T00:16:42.719Z,95.50
2018-04-27T00:19:10.161Z,95.50
2018-04-27T00:21:37.624Z,95.60
2018-04-27T00:24:05.061Z,95.60
2018-04-27T00:26:32.502Z,95.80
2018-04-27T00:28:59.970Z,95.80
2018-04-27T00:31:27.460Z,95.70
2018-04-27T00:33:54.899Z,95.80
2018-04-27T00:36:22.357Z,95.80
2018-04-27T00:38:49.801Z,95.70
2018-04-27T00:41:17.243Z,95.60
2018-04-27T00:43:44.693Z,95.60
2018-04-27T00:46:12.142Z,95.60
2018-04-27T00:48:40.381Z,95.70
2018-04-27T00:51:07.816Z,95.70
2018-04-27T00:53:35.252Z,95.80
2018-04-27T00:56:02.705Z,96.10
2018-04-27T00:58:30.151Z,96.30
2018-04-27T01:00:57.597Z,96.20
2018-04-27T01:03:25.033Z,96.10
2018-04-27T01:05:53.253Z,95.90
2018-04-27T01:08:20.704Z,95.90
2018-04-27T01:10:48.180Z,95.90
2018-04-27T01:13:16.381Z,95.90
2018-04-27T01:15:44.586Z,96.20
2018-04-27T01:18:12.032Z,95.90
2018-04-27T01:20:39.487Z,96.10
2018-04-27T01:23:06.934Z,96.30
2018-04-27T01:25:35.142Z,96.50
2018-04-27T01:28:02.588Z,96.50
2018-04-27T01:30:30.031Z,96.50
2018-04-27T01:32:57.481Z,96.50
2018-04-27T01:35:24.920Z,96.50
2018-04-27T01:37:53.137Z,96.60
2018-04-27T01:40:20.589Z,96.60
2018-04-27T01:42:48.037Z,96.60
2018-04-27T01:45:15.488Z,96.60
2018-04-27T01:47:42.926Z,96.60
2018-04-27T01:50:11.141Z,96.40
2018-04-27T01:52:39.346Z,96.40
2018-04-27T01:55:06.776Z,96.40
2018-04-27T01:57:34.220Z,96.30
2018-04-27T02:00:01.675Z,96.30
2018-04-27T02:02:29.144Z,96.40
2018-04-27T02:04:56.578Z,96.40
2018-04-27T02:07:24.015Z,96.30
2018-04-27T02:09:52.230Z,96.30
2018-04-27T02:12:19.681Z,96.30
2018-04-27T02:14:47.114Z,96.10
2018-04-27T02:17:14.570Z,96.00
2018-04-27T02:19:42.019Z,95.90
2018-04-27T02:22:10.241Z,95.90
2018-04-27T02:24:37.677Z,95.80
2018-04-27T02:27:05.122Z,95.90
2018-04-27T02:29:32.598Z,96.20
2018-04-27T02:32:00.776Z,95.80
2018-04-27T02:34:28.228Z,95.80
2018-04-27T02:36:55.662Z,95.80
2018-04-27T02:39:23.869Z,95.90
2018-04-27T02:41:51.314Z,95.90
2018-04-27T02:44:18.749Z,96.20
2018-04-27T02:46:46.983Z,96.30
2018-04-27T02:49:14.445Z,96.20
2018-04-27T02:51:41.883Z,96.30
2018-04-27T02:54:09.322Z,96.30
2018-04-27T02:56:36.778Z,96.10
2018-04-27T02:59:04.208Z,96.00
2018-04-27T03:01:32.437Z,96.20
2018-04-27T03:03:59.875Z,96.20
2018-04-27T03:06:27.334Z,96.30
2018-04-27T03:08:54.768Z,96.50
2018-04-27T03:11:22.205Z,96.60
2018-04-27T03:13:50.428Z,96.60
2018-04-27T03:16:17.889Z,96.60
2018-04-27T03:18:45.341Z,96.40
2018-04-27T03:21:12.900Z,96.30
2018-04-27T03:23:40.400Z,96.20
2018-04-27T03:26:07.772Z,96.10
2018-04-27T03:28:35.996Z,96.10
2018-04-27T03:31:04.206Z,96.10
2018-04-27T03:33:31.641Z,96.10
2018-04-27T03:35:59.091Z,96.20
2018-04-27T03:38:26.525Z,96.20
2018-04-27T03:40:53.949Z,96.30
2018-04-27T03:43:21.390Z,96.40
2018-04-27T03:45:49.583Z,96.40
2018-04-27T03:48:17.033Z,96.40
2018-04-27T03:50:44.466Z,96.40
2018-04-27T03:53:12.694Z,96.50
2018-04-27T03:55:40.136Z,96.50
2018-04-27T03:58:07.833Z,96.50
2018-04-27T04:00:47.278Z,96.50
2018-04-27T04:06:13.344Z,96.60
2018-04-27T04:08:41.697Z,96.60
2018-04-27T04:11:09.134Z,96.60
2018-04-27T04:13:36.626Z,96.60
2018-04-27T04:16:04.037Z,96.60
2018-04-27T04:18:31.482Z,96.70
2018-04-27T04:20:58.969Z,96.80
2018-04-27T04:23:26.451Z,96.80
2018-04-27T04:25:53.936Z,96.80
2018-04-27T04:28:21.371Z,96.80
2018-04-27T04:30:48.824Z,96.90
2018-04-27T04:33:16.270Z,97.00
2018-04-27T04:35:43.705Z,97.20
2018-04-27T04:38:11.909Z,97.40
2018-04-27T04:40:39.375Z,97.40
2018-04-27T04:43:06.844Z,97.40
2018-04-27T04:45:34.289Z,97.40
2018-04-27T04:48:01.754Z,97.30
2018-04-27T04:50:29.202Z,97.30
2018-04-27T04:52:56.637Z,97.20
2018-04-27T04:55:24.093Z,97.20
2018-04-27T04:57:52.295Z,97.30
2018-04-27T05:00:19.750Z,97.30
2018-04-27T05:02:47.275Z,97.30
2018-04-27T05:05:14.672Z,97.30
2018-04-27T05:07:42.150Z,97.30
2018-04-27T05:10:09.627Z,97.10
2018-04-27T05:12:37.087Z,97.00
2018-04-27T05:15:04.570Z,96.90
2018-04-27T05:17:32.781Z,96.90
2018-04-27T05:19:59.835Z,96.80
2018-04-27T05:22:27.293Z,96.90
2018-04-27T05:24:54.750Z,96.80
2018-04-27T05:27:22.199Z,96.80
2018-04-27T05:29:49.781Z,96.80
2018-04-27T05:32:17.180Z,96.80
2018-04-27T05:34:44.650Z,96.90
2018-04-27T05:37:12.088Z,96.90
2018-04-27T05:39:39.583Z,96.70
2018-04-27T05:42:07.022Z,96.50
2018-04-27T05:44:34.465Z,96.10
2018-04-27T05:47:01.923Z,96.00
2018-04-27T05:49:30.125Z,95.10
2018-04-27T05:51:57.559Z,95.10
2018-04-27T05:54:25.022Z,94.50
2018-04-27T05:56:52.461Z,93.80
2018-04-27T05:59:19.912Z,93.40
2018-04-27T06:01:47.360Z,93.10
2018-04-27T06:04:14.937Z,92.70
2018-04-27T06:06:42.379Z,92.40
2018-04-27T06:09:09.812Z,92.40
2018-04-27T06:11:38.034Z,92.00
2018-04-27T06:14:06.233Z,91.80
2018-04-27T06:16:33.684Z,91.80
2018-04-27T06:19:01.126Z,91.70
2018-04-27T06:21:28.576Z,91.60
2018-04-27T06:23:56.011Z,91.50
2018-04-27T06:26:23.462Z,91.30
2018-04-27T06:28:50.920Z,90.90
2018-04-27T06:31:18.389Z,90.70
2018-04-27T06:33:45.826Z,90.40
2018-04-27T06:36:13.282Z,90.80
2018-04-27T06:38:40.767Z,90.40
2018-04-27T06:41:08.190Z,88.40
2018-04-27T06:43:35.639Z,86.90
2018-04-27T06:46:03.078Z,85.40
2018-04-27T06:48:31.293Z,82.70
2018-04-27T06:50:58.769Z,82.60
2018-04-27T06:53:26.973Z,80.10
2018-04-27T06:55:55.193Z,81.00
2018-04-27T06:58:22.651Z,81.00
2018-04-27T07:00:50.113Z,78.20
2018-04-27T07:03:17.580Z,77.50
2018-04-27T07:05:45.029Z,76.80
2018-04-27T07:08:12.488Z,75.50
2018-04-27T07:10:39.953Z,75.40
2018-04-27T07:13:07.397Z,74.70
2018-04-27T07:15:34.940Z,74.10
2018-04-27T07:18:02.402Z,73.10
2018-04-27T07:20:29.857Z,71.80
2018-04-27T07:22:57.301Z,70.40
2018-04-27T07:25:24.748Z,69.80
2018-04-27T07:27:52.214Z,69.20
2018-04-27T07:30:19.656Z,68.80
2018-04-27T07:32:47.117Z,65.90
2018-04-27T07:35:14.569Z,64.10
2018-04-27T07:37:42.016Z,63.90
2018-04-27T07:40:09.456Z,62.70
2018-04-27T07:42:37.672Z,56.80
2018-04-27T07:45:05.131Z,56.80
2018-04-27T07:47:32.585Z,57.90
2018-04-27T07:50:00.130Z,56.00
2018-04-27T07:52:27.588Z,52.70
2018-04-27T07:54:55.014Z,51.50
2018-04-27T07:57:22.505Z,49.50
2018-04-27T07:59:49.949Z,50.20
2018-04-27T08:02:17.418Z,49.10
2018-04-27T08:04:44.866Z,47.80
2018-04-27T08:07:12.389Z,46.60
2018-04-27T08:09:40.660Z,40.40
2018-04-27T08:12:08.103Z,40.40
2018-04-27T08:14:36.333Z,38.70
2018-04-27T08:17:03.781Z,38.60
2018-04-27T08:19:31.248Z,36.50
2018-04-27T08:21:58.688Z,36.80
2018-04-27T08:24:26.142Z,37.00
2018-04-27T08:26:53.573Z,36.30
2018-04-27T08:29:21.008Z,36.00
2018-04-27T08:31:49.244Z,35.70
2018-04-27T08:34:16.689Z,35.60
2018-04-27T08:36:44.144Z,36.90
2018-04-27T08:39:11.580Z,36.00
2018-04-27T08:41:39.051Z,35.90
2018-04-27T08:44:06.495Z,35.40
2018-04-27T08:46:34.700Z,36.70
2018-04-27T08:49:02.163Z,36.60
2018-04-27T08:51:29.603Z,35.50
2018-04-27T08:53:57.051Z,35.00
2018-04-27T08:56:24.516Z,34.80
2018-04-27T08:58:52.000Z,34.20
2018-04-27T09:01:19.452Z,33.30
2018-04-27T09:03:46.906Z,34.00
2018-04-27T09:06:14.387Z,33.70
2018-04-27T09:08:41.805Z,33.40
2018-04-27T09:11:09.236Z,33.50
2018-04-27T09:13:36.699Z,34.10
2018-04-27T09:16:04.143Z,33.90
2018-04-27T09:18:31.594Z,33.40
2018-04-27T09:20:59.800Z,34.40
2018-04-27T09:23:27.257Z,34.40
2018-04-27T09:25:54.694Z,34.10
2018-04-27T09:28:22.178Z,32.90
2018-04-27T09:30:49.624Z,32.50
2018-04-27T09:33:17.093Z,33.10
2018-04-27T09:35:44.532Z,31.90
2018-04-27T09:38:11.994Z,32.20
2018-04-27T09:40:39.474Z,32.10
2018-04-27T09:43:06.909Z,31.60
2018-04-27T09:45:34.379Z,32.10
2018-04-27T09:48:01.804Z,32.20
2018-04-27T09:50:29.270Z,31.90
2018-04-27T09:52:56.708Z,31.00
2018-04-27T09:55:24.177Z,31.40
2018-04-27T09:57:51.653Z,31.40
2018-04-27T10:00:20.597Z,32.10
2018-04-27T10:02:48.047Z,32.00
2018-04-27T10:05:15.516Z,31.20
2018-04-27T10:07:42.954Z,31.40
2018-04-27T10:10:10.428Z,31.10
2018-04-27T10:12:37.920Z,30.10
2018-04-27T10:15:05.433Z,31.00
2018-04-27T10:17:32.816Z,30.30
2018-04-27T10:20:00.260Z,30.20
2018-04-27T10:22:27.704Z,30.00
2018-04-27T10:24:55.193Z,29.40
2018-04-27T10:27:22.653Z,30.00
2018-04-27T10:29:50.125Z,30.00
2018-04-27T10:32:17.565Z,30.80
2018-04-27T10:34:44.993Z,29.20
2018-04-27T10:37:12.458Z,29.00
2018-04-27T10:39:39.915Z,28.60
2018-04-27T10:42:07.365Z,29.10
2018-04-27T10:44:34.822Z,28.90
2018-04-27T10:47:02.264Z,28.60
2018-04-27T10:49:29.726Z,28.10
2018-04-27T10:51:57.179Z,29.90
2018-04-27T10:54:24.636Z,28.40
2018-04-27T10:56:52.093Z,28.80
2018-04-27T10:59:19.530Z,28.90
2018-04-27T11:01:47.759Z,27.90
2018-04-27T11:04:15.313Z,27.80
2018-04-27T11:06:42.763Z,27.70
2018-04-27T11:09:10.270Z,27.40
2018-04-27T11:11:37.714Z,27.40
2018-04-27T11:14:05.172Z,28.70
2018-04-27T11:16:32.655Z,27.00
2018-04-27T11:19:00.154Z,29.00
2018-04-27T11:21:28.004Z,27.90
2018-04-27T11:23:55.576Z,27.90
2018-04-27T11:26:23.097Z,27.60
2018-04-27T11:28:50.468Z,27.30
2018-04-27T11:31:17.914Z,28.30
2018-04-27T11:33:45.372Z,30.20
2018-04-27T11:36:12.814Z,27.40
2018-04-27T11:38:41.038Z,25.80
2018-04-27T11:41:09.113Z,25.80
2018-04-27T11:43:37.340Z,27.70
2018-04-27T11:46:05.569Z,26.50
2018-04-27T11:48:33.124Z,26.40
2018-04-27T11:51:00.597Z,25.30
2018-04-27T11:53:28.041Z,26.00
2018-04-27T11:55:55.477Z,26.30
2018-04-27T11:58:23.746Z,27.00
2018-04-27T12:00:51.195Z,27.30
2018-04-27T12:03:18.634Z,26.00
2018-04-27T12:05:46.093Z,26.00
2018-04-27T12:08:13.536Z,26.80
2018-04-27T12:10:41.031Z,25.70
2018-04-27T12:13:08.457Z,27.40
2018-04-27T12:15:35.899Z,26.30
2018-04-27T12:18:03.358Z,25.60
2018-04-27T12:20:30.822Z,27.00
2018-04-27T12:22:58.273Z,26.10
2018-04-27T12:25:25.724Z,25.70
2018-04-27T12:27:53.237Z,25.70
2018-04-27T12:30:20.719Z,25.50
2018-04-27T12:32:48.183Z,26.70
2018-04-27T12:35:16.593Z,27.10
2018-04-27T12:37:45.678Z,26.80
2018-04-27T12:40:13.116Z,26.40
2018-04-27T12:42:40.569Z,26.10
2018-04-27T12:45:08.100Z,26.00
2018-04-27T12:47:36.229Z,25.30
2018-04-27T12:50:03.678Z,25.30
2018-04-27T12:52:31.108Z,26.30
2018-04-27T12:54:58.567Z,25.00
2018-04-27T12:57:26.798Z,25.00
2018-04-27T12:59:54.261Z,25.00
2018-04-27T13:02:21.711Z,25.10
2018-04-27T13:04:49.149Z,25.90
2018-04-27T13:07:16.612Z,25.30
2018-04-27T13:09:44.045Z,26.00
2018-04-27T13:12:11.500Z,25.20
2018-04-27T13:14:38.941Z,25.00
2018-04-27T13:17:07.162Z,26.00
2018-04-27T13:19:34.606Z,25.90
2018-04-27T13:22:02.081Z,27.30
2018-04-27T13:24:29.533Z,25.70
2018-04-27T13:26:57.081Z,25.50
2018-04-27T13:29:24.524Z,26.60
2018-04-27T13:31:51.966Z,25.00
2018-04-27T13:34:20.208Z,24.70
2018-04-27T13:36:47.632Z,24.70
2018-04-27T13:39:15.080Z,25.40
2018-04-27T13:41:42.522Z,25.40
2018-04-27T13:44:10.742Z,24.90
2018-04-27T13:46:38.187Z,24.80
2018-04-27T13:49:05.651Z,24.30
2018-04-27T13:51:33.101Z,24.50
2018-04-27T13:54:00.549Z,24.40
2018-04-27T13:56:28.001Z,24.50
2018-04-27T13:58:55.440Z,23.80
2018-04-27T14:01:23.680Z,24.90
2018-04-27T14:03:51.126Z,24.90
2018-04-27T14:06:18.575Z,24.50
2018-04-27T14:08:46.044Z,24.20
2018-04-27T14:11:13.544Z,23.70
2018-04-27T14:13:40.938Z,24.00
2018-04-27T14:16:08.396Z,23.60
2018-04-27T14:18:35.847Z,22.70
2018-04-27T14:21:03.329Z,24.10
2018-04-27T14:23:30.781Z,23.40
2018-04-27T14:25:58.225Z,23.40
2018-04-27T14:28:25.711Z,22.70
2018-04-27T14:30:53.199Z,24.10
2018-04-27T14:33:20.620Z,23.00
2018-04-27T14:35:48.064Z,22.50
2018-04-27T14:38:15.505Z,21.40
2018-04-27T14:40:42.964Z,20.80
2018-04-27T14:43:10.413Z,21.10
2018-04-27T14:45:37.884Z,21.30
2018-04-27T14:48:05.338Z,20.90
2018-04-27T14:50:32.803Z,21.20
2018-04-27T14:53:00.471Z,21.30
2018-04-27T14:55:27.919Z,21.70
2018-04-27T14:57:55.381Z,21.90
2018-04-27T15:00:22.825Z,22.50
2018-04-27T15:02:50.301Z,22.70
2018-04-27T15:05:17.742Z,21.40
2018-04-27T15:07:45.194Z,22.00
2018-04-27T15:10:12.654Z,22.10
2018-04-27T15:12:40.121Z,21.60
2018-04-27T15:15:07.585Z,21.50
2018-04-27T15:17:36.001Z,21.40
2018-04-27T15:20:04.132Z,22.40
2018-04-27T15:22:32.904Z,21.90
2018-04-27T15:25:00.831Z,21.00
2018-04-27T15:27:28.500Z,22.70
2018-04-27T15:29:56.081Z,21.30
2018-04-27T15:32:23.510Z,22.40
2018-04-27T15:34:50.954Z,21.70
2018-04-27T15:37:18.431Z,22.20
2018-04-27T15:39:45.884Z,22.60
2018-04-27T15:42:14.101Z,23.90
2018-04-27T15:44:41.555Z,23.90
2018-04-27T15:47:09.606Z,23.70
2018-04-27T15:49:37.081Z,23.90
2018-04-27T15:52:04.560Z,23.40
2018-04-27T15:54:31.969Z,23.30
2018-04-27T15:56:59.427Z,23.20
2018-04-27T15:59:26.867Z,23.90
2018-04-27T16:01:54.318Z,24.10
2018-04-27T16:04:21.778Z,24.70
2018-04-27T16:06:49.246Z,23.90
2018-04-27T16:09:16.752Z,24.80
2018-04-27T16:11:44.165Z,24.40
2018-04-27T16:14:11.610Z,24.70
2018-04-27T16:16:39.074Z,25.00
2018-04-27T16:19:06.512Z,24.60
2018-04-27T16:21:33.956Z,25.00
2018-04-27T16:24:01.414Z,24.80
2018-04-27T16:26:28.856Z,25.10
2018-04-27T16:28:57.089Z,25.60
2018-04-27T16:31:24.521Z,25.60
2018-04-27T16:33:52.863Z,25.50
2018-04-27T16:36:21.069Z,26.60
2018-04-27T16:38:48.505Z,26.60
2018-04-27T16:41:15.968Z,28.40
2018-04-27T16:43:43.403Z,28.20
2018-04-27T16:46:11.622Z,32.30
2018-04-27T16:48:39.090Z,32.30
2018-04-27T16:51:06.526Z,33.00
2018-04-27T16:53:33.982Z,35.00
2018-04-27T16:56:01.421Z,36.00
2018-04-27T16:58:29.683Z,37.70
2018-04-27T17:00:57.129Z,37.70
2018-04-27T17:03:24.604Z,38.30
2018-04-27T17:05:52.804Z,33.80
2018-04-27T17:08:20.259Z,33.80
2018-04-27T17:10:47.703Z,31.00
2018-04-27T17:13:15.171Z,28.90
2018-04-27T17:15:42.628Z,29.40
2018-04-27T17:18:10.065Z,29.40
2018-04-27T17:20:37.520Z,29.20
2018-04-27T17:23:04.977Z,32.50
2018-04-27T17:25:33.202Z,33.40
2018-04-27T17:28:00.655Z,33.30
2018-04-27T17:30:28.084Z,34.90
2018-04-27T17:32:55.549Z,33.60
2018-04-27T17:35:23.054Z,34.70
2018-04-27T17:37:50.547Z,36.10
2018-04-27T17:40:18.167Z,34.80
2018-04-27T17:42:45.594Z,36.50
2018-04-27T17:45:13.041Z,36.70
2018-04-27T17:47:40.729Z,38.70
2018-04-27T17:50:08.942Z,39.80
2018-04-27T17:52:36.389Z,39.70
2018-04-27T17:55:03.841Z,40.00
2018-04-27T17:57:31.301Z,40.00
2018-04-27T17:59:58.762Z,40.50
2018-04-27T18:02:26.200Z,41.30
2018-04-27T18:07:22.576Z,42.20
2018-04-27T18:09:50.021Z,42.30
2018-04-27T18:12:17.627Z,42.70
2018-04-27T18:14:45.053Z,43.40
2018-04-27T18:17:12.519Z,43.50
2018-04-27T18:19:40.746Z,43.70
2018-04-27T18:22:08.177Z,43.70
2018-04-27T18:24:36.420Z,44.70
2018-04-27T18:27:03.861Z,44.70
2018-04-27T18:29:31.330Z,44.90
2018-04-27T18:31:58.829Z,44.80
2018-04-27T18:34:27.116Z,45.80
2018-04-27T18:36:54.563Z,45.80
2018-04-27T18:39:22.779Z,46.50
2018-04-27T18:41:50.204Z,46.40
2018-04-27T18:44:18.415Z,47.00
2018-04-27T18:46:45.864Z,46.90
2018-04-27T18:49:13.311Z,47.60
2018-04-27T18:51:40.747Z,47.30
2018-04-27T18:54:09.285Z,47.70
2018-04-27T18:56:38.292Z,47.70
2018-04-27T18:59:07.668Z,47.70
2018-04-27T19:01:35.113Z,48.00
2018-04-27T19:04:02.561Z,48.20
2018-04-27T19:06:30.006Z,49.00
2018-04-27T19:08:58.321Z,48.70
2018-04-27T19:11:25.757Z,48.70
2018-04-27T19:13:53.205Z,48.40
2018-04-27T19:16:20.686Z,49.00
2018-04-27T19:18:48.472Z,49.00
2018-04-27T19:21:19.684Z,48.60
2018-04-27T19:23:47.130Z,48.40
2018-04-27T19:26:15.487Z,48.80
2018-04-27T19:28:42.925Z,48.60
2018-04-27T19:31:10.378Z,49.30
2018-04-27T19:33:38.598Z,49.50
2018-04-27T19:36:06.813Z,52.00
2018-04-27T19:38:34.275Z,52.00
2018-04-27T19:41:01.726Z,53.00
2018-04-27T19:43:29.175Z,53.20
2018-04-27T19:45:56.632Z,53.90
2018-04-27T19:48:24.070Z,55.00
2018-04-27T19:50:52.352Z,55.50
2018-04-27T19:53:19.806Z,56.70
2018-04-27T19:55:48.023Z,57.80
2018-04-27T19:58:15.473Z,57.80
2018-04-27T20:00:42.920Z,58.60
2018-04-27T20:03:10.373Z,59.70
2018-04-27T20:05:42.403Z,61.00
2018-04-27T20:08:10.893Z,64.00
2018-04-27T20:10:39.162Z,64.30
2018-04-27T20:13:06.879Z,64.30
2018-04-27T20:15:36.219Z,64.50
2018-04-27T20:18:08.121Z,64.30
2018-04-27T20:20:35.487Z,63.50
2018-04-27T20:23:08.778Z,62.70
2018-04-27T20:25:36.235Z,61.70
2018-04-27T20:28:05.432Z,60.30
2018-04-27T20:30:32.886Z,61.20
2018-04-27T20:33:00.329Z,59.50
2018-04-27T20:35:28.140Z,58.00
2018-04-27T20:38:01.495Z,59.20
2018-04-27T20:40:30.494Z,58.50
2018-04-27T20:42:57.931Z,56.00
2018-04-27T20:45:25.364Z,55.50
2018-04-27T20:47:53.586Z,52.00
2018-04-27T20:50:25.435Z,52.00
2018-04-27T20:52:52.892Z,48.90
2018-04-27T20:55:20.341Z,47.70
2018-04-27T20:57:48.112Z,48.70
2018-04-27T21:00:15.536Z,48.90
2018-04-27T21:02:42.982Z,48.20
2018-04-27T21:05:11.223Z,49.50
2018-04-27T21:07:38.743Z,49.40
2018-04-27T21:10:06.180Z,48.90
2018-04-27T21:12:34.547Z,49.50
2018-04-27T21:15:02.758Z,50.80
2018-04-27T21:17:30.217Z,50.90
2018-04-27T21:19:57.661Z,48.90
2018-04-27T21:22:25.115Z,50.40
2018-04-27T21:24:52.595Z,51.00
2018-04-27T21:27:20.000Z,51.50
2018-04-27T21:29:47.444Z,50.80
2018-04-27T21:32:15.661Z,53.30
2018-04-27T21:34:43.112Z,53.30
2018-04-27T21:37:10.540Z,55.00
2018-04-27T21:39:38.012Z,57.30
2018-04-27T21:42:09.879Z,59.20
2018-04-27T21:44:40.770Z,60.30
2018-04-27T21:47:15.634Z,61.50
2018-04-27T21:49:43.879Z,61.40
2018-04-27T21:52:17.786Z,62.90
2018-04-27T21:54:47.889Z,64.00
2018-04-27T22:00:15.653Z,64.60
2018-04-27T22:03:15.457Z,66.40
2018-04-27T22:08:43.082Z,69.80
2018-04-27T22:11:15.095Z,71.50
2018-04-27T22:13:42.538Z,71.50
2018-04-27T22:19:17.197Z,73.70
2018-04-27T22:21:45.462Z,74.30
2018-04-27T22:24:17.613Z,72.30
2018-04-27T22:26:45.067Z,71.30
2018-04-27T22:32:08.049Z,77.00
2018-04-27T22:37:31.910Z,77.90
2018-04-27T22:40:07.045Z,78.20
2018-04-27T22:45:36.204Z,75.80
2018-04-27T22:48:24.322Z,77.50
2018-04-27T22:53:51.954Z,76.80
2018-04-27T22:56:34.298Z,76.40
2018-04-27T22:59:01.744Z,76.70
2018-04-27T23:01:29.189Z,76.70
2018-04-27T23:03:57.344Z,77.70
2018-04-27T23:06:24.801Z,77.50
2018-04-27T23:08:52.475Z,78.00
2018-04-27T23:11:21.653Z,78.50
2018-04-27T23:16:46.818Z,77.50
2018-04-27T23:19:14.260Z,77.50
2018-04-27T23:24:38.922Z,78.70
2018-04-27T23:27:06.377Z,79.40
2018-04-27T23:29:33.821Z,80.20
2018-04-27T23:32:02.022Z,81.70
2018-04-27T23:34:29.470Z,81.70
2018-04-27T23:36:56.916Z,83.00
2018-04-27T23:39:24.354Z,84.40
2018-04-27T23:41:52.597Z,85.50
2018-04-27T23:44:20.026Z,85.50
2018-04-27T23:46:47.547Z,85.90
2018-04-27T23:49:15.745Z,85.90
2018-04-27T23:51:43.180Z,85.70
2018-04-27T23:54:11.321Z,84.00
2018-04-27T23:56:50.899Z,82.20
2018-04-27T23:59:19.021Z,81.00
